sensor_id;sensor_type;location;lat;lon;timestamp;P1;durP1;ratioP1;P2;durP2;ratioP2
45354;SDS011;31091;48.758;9.150;2022-12-29T00:01:39;4.25;;;2.55;;
45354;SDS011;31091;48.758;9.150;2022-12-29T00:04:24;6.20;;;3.05;;
45354;SDS011;31091;48.758;9.150;2022-12-29T00:07:09;8.52;;;3.58;;
45354;SDS011;31091;48.758;9.150;2022-12-29T00:09:55;8.15;;;3.15;;
45354;SDS011;31091;48.758;9.150;2022-12-29T00:12:40;6.00;;;2.80;;
45354;SDS011;31091;48.758;9.150;2022-12-29T00:15:44;8.75;;;2.78;;
45354;SDS011;31091;48.758;9.150;2022-12-29T00:18:29;5.35;;;2.38;;
45354;SDS011;31091;48.758;9.150;2022-12-29T00:21:15;5.80;;;2.72;;
45354;SDS011;31091;48.758;9.150;2022-12-29T00:24:20;4.40;;;2.60;;
45354;SDS011;31091;48.758;9.150;2022-12-29T00:27:12;4.20;;;2.33;;
45354;SDS011;31091;48.758;9.150;2022-12-29T00:30:17;6.55;;;2.75;;
45354;SDS011;31091;48.758;9.150;2022-12-29T00:33:21;4.57;;;2.42;;
45354;SDS011;31091;48.758;9.150;2022-12-29T00:36:28;6.03;;;2.55;;
45354;SDS011;31091;48.758;9.150;2022-12-29T00:39:16;5.45;;;2.65;;
45354;SDS011;31091;48.758;9.150;2022-12-29T00:42:20;3.50;;;2.13;;
45354;SDS011;31091;48.758;9.150;2022-12-29T00:45:24;5.05;;;2.15;;
45354;SDS011;31091;48.758;9.150;2022-12-29T00:48:09;4.25;;;2.30;;
45354;SDS011;31091;48.758;9.150;2022-12-29T00:50:55;4.22;;;2.05;;
45354;SDS011;31091;48.758;9.150;2022-12-29T00:53:41;7.40;;;3.15;;
45354;SDS011;31091;48.758;9.150;2022-12-29T00:56:26;8.23;;;2.50;;
45354;SDS011;31091;48.758;9.150;2022-12-29T00:59:11;4.13;;;2.17;;
45354;SDS011;31091;48.758;9.150;2022-12-29T01:01:57;2.92;;;1.83;;
45354;SDS011;31091;48.758;9.150;2022-12-29T01:04:42;5.22;;;1.98;;
45354;SDS011;31091;48.758;9.150;2022-12-29T01:07:27;4.50;;;2.25;;
45354;SDS011;31091;48.758;9.150;2022-12-29T01:10:12;4.20;;;2.10;;
45354;SDS011;31091;48.758;9.150;2022-12-29T01:12:59;5.75;;;2.42;;
45354;SDS011;31091;48.758;9.150;2022-12-29T01:15:49;5.05;;;2.00;;
45354;SDS011;31091;48.758;9.150;2022-12-29T01:18:34;5.68;;;2.10;;
45354;SDS011;31091;48.758;9.150;2022-12-29T01:21:19;3.03;;;2.00;;
45354;SDS011;31091;48.758;9.150;2022-12-29T01:24:05;7.30;;;2.15;;
45354;SDS011;31091;48.758;9.150;2022-12-29T01:26:50;2.20;;;1.88;;
45354;SDS011;31091;48.758;9.150;2022-12-29T01:29:35;5.65;;;1.85;;
45354;SDS011;31091;48.758;9.150;2022-12-29T01:32:21;4.10;;;1.80;;
45354;SDS011;31091;48.758;9.150;2022-12-29T01:35:06;5.70;;;1.70;;
45354;SDS011;31091;48.758;9.150;2022-12-29T01:37:51;3.53;;;1.92;;
45354;SDS011;31091;48.758;9.150;2022-12-29T01:40:42;3.20;;;1.73;;
45354;SDS011;31091;48.758;9.150;2022-12-29T01:43:38;3.20;;;1.70;;
45354;SDS011;31091;48.758;9.150;2022-12-29T01:46:30;1.98;;;1.48;;
45354;SDS011;31091;48.758;9.150;2022-12-29T01:49:20;4.35;;;1.60;;
45354;SDS011;31091;48.758;9.150;2022-12-29T01:52:07;4.38;;;2.05;;
45354;SDS011;31091;48.758;9.150;2022-12-29T01:54:53;3.50;;;1.45;;
45354;SDS011;31091;48.758;9.150;2022-12-29T01:57:40;6.05;;;2.00;;
45354;SDS011;31091;48.758;9.150;2022-12-29T02:00:28;5.80;;;2.33;;
45354;SDS011;31091;48.758;9.150;2022-12-29T02:03:14;5.32;;;2.42;;
45354;SDS011;31091;48.758;9.150;2022-12-29T02:08:46;4.68;;;1.80;;
45354;SDS011;31091;48.758;9.150;2022-12-29T02:11:31;4.70;;;1.70;;
45354;SDS011;31091;48.758;9.150;2022-12-29T02:14:16;2.38;;;1.45;;
45354;SDS011;31091;48.758;9.150;2022-12-29T02:17:20;4.25;;;1.75;;
45354;SDS011;31091;48.758;9.150;2022-12-29T02:29:11;2.25;;;1.30;;
45354;SDS011;31091;48.758;9.150;2022-12-29T02:32:07;4.20;;;1.67;;
45354;SDS011;31091;48.758;9.150;2022-12-29T02:35:01;5.53;;;1.65;;
45354;SDS011;31091;48.758;9.150;2022-12-29T02:41:03;3.90;;;1.92;;
45354;SDS011;31091;48.758;9.150;2022-12-29T02:43:54;2.83;;;1.50;;
45354;SDS011;31091;48.758;9.150;2022-12-29T02:52:31;5.97;;;1.50;;
45354;SDS011;31091;48.758;9.150;2022-12-29T02:55:17;3.90;;;2.15;;
45354;SDS011;31091;48.758;9.150;2022-12-29T03:19:04;2.65;;;1.48;;
45354;SDS011;31091;48.758;9.150;2022-12-29T03:21:51;3.22;;;1.50;;
45354;SDS011;31091;48.758;9.150;2022-12-29T03:24:58;3.67;;;2.03;;
45354;SDS011;31091;48.758;9.150;2022-12-29T03:27:45;7.70;;;2.17;;
45354;SDS011;31091;48.758;9.150;2022-12-29T03:30:32;2.65;;;1.50;;
45354;SDS011;31091;48.758;9.150;2022-12-29T03:33:20;3.58;;;2.05;;
45354;SDS011;31091;48.758;9.150;2022-12-29T03:36:07;3.78;;;1.70;;
45354;SDS011;31091;48.758;9.150;2022-12-29T03:38:56;5.88;;;1.90;;
45354;SDS011;31091;48.758;9.150;2022-12-29T03:41:44;3.67;;;2.13;;
45354;SDS011;31091;48.758;9.150;2022-12-29T03:44:35;2.40;;;1.50;;
45354;SDS011;31091;48.758;9.150;2022-12-29T03:47:21;5.60;;;2.17;;
45354;SDS011;31091;48.758;9.150;2022-12-29T03:50:07;2.85;;;1.35;;
45354;SDS011;31091;48.758;9.150;2022-12-29T03:52:53;2.50;;;1.25;;
45354;SDS011;31091;48.758;9.150;2022-12-29T03:55:38;4.72;;;1.52;;
45354;SDS011;31091;48.758;9.150;2022-12-29T03:58:24;4.20;;;1.48;;
45354;SDS011;31091;48.758;9.150;2022-12-29T04:01:09;4.40;;;1.40;;
45354;SDS011;31091;48.758;9.150;2022-12-29T04:03:54;14.15;;;1.75;;
45354;SDS011;31091;48.758;9.150;2022-12-29T04:06:39;2.80;;;1.30;;
45354;SDS011;31091;48.758;9.150;2022-12-29T04:09:25;1.40;;;1.30;;
45354;SDS011;31091;48.758;9.150;2022-12-29T04:12:10;3.28;;;1.33;;
45354;SDS011;31091;48.758;9.150;2022-12-29T04:14:55;5.90;;;1.20;;
45354;SDS011;31091;48.758;9.150;2022-12-29T04:17:40;3.95;;;1.42;;
45354;SDS011;31091;48.758;9.150;2022-12-29T04:20:25;7.70;;;1.55;;
45354;SDS011;31091;48.758;9.150;2022-12-29T04:23:30;3.70;;;1.25;;
45354;SDS011;31091;48.758;9.150;2022-12-29T04:26:15;6.15;;;1.20;;
45354;SDS011;31091;48.758;9.150;2022-12-29T04:29:01;5.30;;;1.35;;
45354;SDS011;31091;48.758;9.150;2022-12-29T04:31:46;2.35;;;1.30;;
45354;SDS011;31091;48.758;9.150;2022-12-29T04:34:31;3.72;;;1.25;;
45354;SDS011;31091;48.758;9.150;2022-12-29T04:37:16;3.65;;;1.25;;
45354;SDS011;31091;48.758;9.150;2022-12-29T04:40:02;2.50;;;1.52;;
45354;SDS011;31091;48.758;9.150;2022-12-29T04:42:47;4.00;;;1.40;;
45354;SDS011;31091;48.758;9.150;2022-12-29T04:45:32;3.53;;;1.17;;
45354;SDS011;31091;48.758;9.150;2022-12-29T04:48:17;4.32;;;1.23;;
45354;SDS011;31091;48.758;9.150;2022-12-29T04:51:03;2.92;;;1.48;;
45354;SDS011;31091;48.758;9.150;2022-12-29T04:53:48;4.45;;;1.27;;
45354;SDS011;31091;48.758;9.150;2022-12-29T04:56:33;4.43;;;1.48;;
45354;SDS011;31091;48.758;9.150;2022-12-29T04:59:18;2.20;;;1.40;;
45354;SDS011;31091;48.758;9.150;2022-12-29T05:02:04;3.30;;;1.48;;
45354;SDS011;31091;48.758;9.150;2022-12-29T05:04:49;2.78;;;1.45;;
45354;SDS011;31091;48.758;9.150;2022-12-29T05:07:34;4.18;;;1.50;;
45354;SDS011;31091;48.758;9.150;2022-12-29T05:10:20;2.72;;;1.40;;
45354;SDS011;31091;48.758;9.150;2022-12-29T05:13:05;2.85;;;1.50;;
45354;SDS011;31091;48.758;9.150;2022-12-29T05:15:50;2.17;;;1.42;;
45354;SDS011;31091;48.758;9.150;2022-12-29T05:18:36;3.25;;;1.95;;
45354;SDS011;31091;48.758;9.150;2022-12-29T05:21:21;2.35;;;1.13;;
45354;SDS011;31091;48.758;9.150;2022-12-29T05:24:06;2.53;;;1.50;;
45354;SDS011;31091;48.758;9.150;2022-12-29T05:26:51;5.72;;;1.60;;
45354;SDS011;31091;48.758;9.150;2022-12-29T05:29:37;3.67;;;1.55;;
45354;SDS011;31091;48.758;9.150;2022-12-29T05:32:22;4.30;;;1.90;;
45354;SDS011;31091;48.758;9.150;2022-12-29T05:35:07;1.95;;;1.42;;
45354;SDS011;31091;48.758;9.150;2022-12-29T05:37:53;5.25;;;1.80;;
45354;SDS011;31091;48.758;9.150;2022-12-29T05:40:38;3.47;;;1.80;;
45354;SDS011;31091;48.758;9.150;2022-12-29T05:43:23;5.03;;;2.63;;
45354;SDS011;31091;48.758;9.150;2022-12-29T05:46:09;1.88;;;1.30;;
45354;SDS011;31091;48.758;9.150;2022-12-29T05:48:55;2.65;;;1.50;;
45354;SDS011;31091;48.758;9.150;2022-12-29T05:51:40;3.03;;;1.60;;
45354;SDS011;31091;48.758;9.150;2022-12-29T05:54:25;2.25;;;1.33;;
45354;SDS011;31091;48.758;9.150;2022-12-29T05:57:10;5.68;;;1.48;;
45354;SDS011;31091;48.758;9.150;2022-12-29T05:59:56;4.22;;;1.63;;
45354;SDS011;31091;48.758;9.150;2022-12-29T06:02:41;1.95;;;1.58;;
45354;SDS011;31091;48.758;9.150;2022-12-29T06:05:26;3.05;;;1.40;;
45354;SDS011;31091;48.758;9.150;2022-12-29T06:08:12;2.05;;;1.50;;
45354;SDS011;31091;48.758;9.150;2022-12-29T06:10:57;2.92;;;1.20;;
45354;SDS011;31091;48.758;9.150;2022-12-29T06:13:42;3.63;;;1.67;;
45354;SDS011;31091;48.758;9.150;2022-12-29T06:16:27;4.05;;;1.95;;
45354;SDS011;31091;48.758;9.150;2022-12-29T06:19:13;4.93;;;2.50;;
45354;SDS011;31091;48.758;9.150;2022-12-29T06:21:58;2.97;;;1.60;;
45354;SDS011;31091;48.758;9.150;2022-12-29T06:24:43;4.70;;;1.75;;
45354;SDS011;31091;48.758;9.150;2022-12-29T06:27:28;7.47;;;1.58;;
45354;SDS011;31091;48.758;9.150;2022-12-29T06:30:14;3.25;;;1.90;;
45354;SDS011;31091;48.758;9.150;2022-12-29T06:32:59;2.83;;;1.63;;
45354;SDS011;31091;48.758;9.150;2022-12-29T06:35:45;3.92;;;1.20;;
45354;SDS011;31091;48.758;9.150;2022-12-29T06:38:30;1.80;;;1.30;;
45354;SDS011;31091;48.758;9.150;2022-12-29T06:41:16;2.53;;;1.38;;
45354;SDS011;31091;48.758;9.150;2022-12-29T06:44:01;3.33;;;1.92;;
45354;SDS011;31091;48.758;9.150;2022-12-29T06:46:46;3.58;;;1.77;;
45354;SDS011;31091;48.758;9.150;2022-12-29T06:49:32;2.40;;;1.30;;
45354;SDS011;31091;48.758;9.150;2022-12-29T06:52:17;2.65;;;1.27;;
45354;SDS011;31091;48.758;9.150;2022-12-29T06:55:02;8.50;;;2.10;;
45354;SDS011;31091;48.758;9.150;2022-12-29T06:57:48;9.30;;;1.83;;
45354;SDS011;31091;48.758;9.150;2022-12-29T07:00:33;1.80;;;1.30;;
45354;SDS011;31091;48.758;9.150;2022-12-29T07:03:19;4.03;;;1.50;;
45354;SDS011;31091;48.758;9.150;2022-12-29T07:06:05;5.80;;;2.10;;
45354;SDS011;31091;48.758;9.150;2022-12-29T07:08:50;2.72;;;1.55;;
45354;SDS011;31091;48.758;9.150;2022-12-29T07:11:39;4.93;;;1.45;;
45354;SDS011;31091;48.758;9.150;2022-12-29T07:14:24;3.33;;;1.70;;
45354;SDS011;31091;48.758;9.150;2022-12-29T07:17:09;7.75;;;2.88;;
45354;SDS011;31091;48.758;9.150;2022-12-29T07:19:54;4.05;;;1.85;;
45354;SDS011;31091;48.758;9.150;2022-12-29T07:22:40;3.47;;;1.60;;
45354;SDS011;31091;48.758;9.150;2022-12-29T07:25:25;2.33;;;1.67;;
45354;SDS011;31091;48.758;9.150;2022-12-29T07:28:10;5.95;;;2.65;;
45354;SDS011;31091;48.758;9.150;2022-12-29T07:30:55;2.78;;;1.60;;
45354;SDS011;31091;48.758;9.150;2022-12-29T07:33:41;3.05;;;1.60;;
45354;SDS011;31091;48.758;9.150;2022-12-29T07:36:26;4.45;;;1.77;;
45354;SDS011;31091;48.758;9.150;2022-12-29T07:39:11;2.45;;;1.55;;
45354;SDS011;31091;48.758;9.150;2022-12-29T07:41:56;4.18;;;2.30;;
45354;SDS011;31091;48.758;9.150;2022-12-29T07:44:42;4.78;;;2.42;;
45354;SDS011;31091;48.758;9.150;2022-12-29T07:47:27;7.53;;;2.20;;
45354;SDS011;31091;48.758;9.150;2022-12-29T07:50:12;6.45;;;2.00;;
45354;SDS011;31091;48.758;9.150;2022-12-29T07:52:57;5.90;;;2.10;;
45354;SDS011;31091;48.758;9.150;2022-12-29T07:55:43;4.60;;;2.10;;
45354;SDS011;31091;48.758;9.150;2022-12-29T07:58:28;4.18;;;1.98;;
45354;SDS011;31091;48.758;9.150;2022-12-29T08:01:13;15.23;;;2.20;;
45354;SDS011;31091;48.758;9.150;2022-12-29T08:03:58;4.68;;;2.17;;
45354;SDS011;31091;48.758;9.150;2022-12-29T08:06:43;2.78;;;1.50;;
45354;SDS011;31091;48.758;9.150;2022-12-29T08:09:30;4.50;;;1.95;;
45354;SDS011;31091;48.758;9.150;2022-12-29T08:12:15;6.88;;;2.13;;
45354;SDS011;31091;48.758;9.150;2022-12-29T08:15:00;3.30;;;1.58;;
45354;SDS011;31091;48.758;9.150;2022-12-29T08:17:46;5.32;;;1.70;;
45354;SDS011;31091;48.758;9.150;2022-12-29T08:20:31;8.02;;;2.40;;
45354;SDS011;31091;48.758;9.150;2022-12-29T08:23:16;7.28;;;2.58;;
45354;SDS011;31091;48.758;9.150;2022-12-29T08:26:05;8.65;;;2.50;;
45354;SDS011;31091;48.758;9.150;2022-12-29T08:28:54;3.77;;;2.10;;
45354;SDS011;31091;48.758;9.150;2022-12-29T08:31:40;3.88;;;2.00;;
45354;SDS011;31091;48.758;9.150;2022-12-29T08:34:25;6.00;;;2.05;;
45354;SDS011;31091;48.758;9.150;2022-12-29T08:37:11;6.53;;;3.05;;
45354;SDS011;31091;48.758;9.150;2022-12-29T08:39:56;6.75;;;2.47;;
45354;SDS011;31091;48.758;9.150;2022-12-29T08:42:43;4.13;;;2.25;;
45354;SDS011;31091;48.758;9.150;2022-12-29T08:45:28;4.75;;;1.83;;
45354;SDS011;31091;48.758;9.150;2022-12-29T08:48:13;4.78;;;1.75;;
45354;SDS011;31091;48.758;9.150;2022-12-29T08:51:01;4.78;;;2.17;;
45354;SDS011;31091;48.758;9.150;2022-12-29T08:53:46;8.35;;;2.70;;
45354;SDS011;31091;48.758;9.150;2022-12-29T08:56:31;4.00;;;2.00;;
45354;SDS011;31091;48.758;9.150;2022-12-29T08:59:16;10.32;;;2.00;;
45354;SDS011;31091;48.758;9.150;2022-12-29T09:02:02;3.92;;;1.52;;
45354;SDS011;31091;48.758;9.150;2022-12-29T09:04:47;9.77;;;2.00;;
45354;SDS011;31091;48.758;9.150;2022-12-29T09:07:32;5.03;;;2.15;;
45354;SDS011;31091;48.758;9.150;2022-12-29T09:10:18;5.43;;;1.65;;
45354;SDS011;31091;48.758;9.150;2022-12-29T09:13:03;5.15;;;1.80;;
45354;SDS011;31091;48.758;9.150;2022-12-29T09:15:48;4.75;;;2.72;;
45354;SDS011;31091;48.758;9.150;2022-12-29T09:18:33;3.88;;;2.20;;
45354;SDS011;31091;48.758;9.150;2022-12-29T09:21:18;1.75;;;1.40;;
45354;SDS011;31091;48.758;9.150;2022-12-29T09:24:04;3.85;;;1.83;;
45354;SDS011;31091;48.758;9.150;2022-12-29T09:26:49;4.55;;;1.85;;
45354;SDS011;31091;48.758;9.150;2022-12-29T09:29:34;5.40;;;1.70;;
45354;SDS011;31091;48.758;9.150;2022-12-29T09:32:19;2.33;;;1.60;;
45354;SDS011;31091;48.758;9.150;2022-12-29T09:35:05;4.78;;;1.75;;
45354;SDS011;31091;48.758;9.150;2022-12-29T09:37:50;3.42;;;1.73;;
45354;SDS011;31091;48.758;9.150;2022-12-29T09:40:35;3.20;;;1.92;;
45354;SDS011;31091;48.758;9.150;2022-12-29T09:46:24;3.60;;;1.70;;
45354;SDS011;31091;48.758;9.150;2022-12-29T09:52:05;7.28;;;2.38;;
45354;SDS011;31091;48.758;9.150;2022-12-29T09:54:54;3.70;;;1.58;;
45354;SDS011;31091;48.758;9.150;2022-12-29T10:00:40;4.75;;;1.88;;
45354;SDS011;31091;48.758;9.150;2022-12-29T10:03:49;1.80;;;1.17;;
45354;SDS011;31091;48.758;9.150;2022-12-29T10:09:29;3.33;;;1.27;;
45354;SDS011;31091;48.758;9.150;2022-12-29T10:12:26;1.85;;;1.30;;
45354;SDS011;31091;48.758;9.150;2022-12-29T10:15:17;3.63;;;1.40;;
45354;SDS011;31091;48.758;9.150;2022-12-29T10:20:52;3.28;;;1.40;;
45354;SDS011;31091;48.758;9.150;2022-12-29T10:23:40;2.92;;;1.33;;
45354;SDS011;31091;48.758;9.150;2022-12-29T10:26:30;2.33;;;1.50;;
45354;SDS011;31091;48.758;9.150;2022-12-29T10:29:20;3.72;;;1.40;;
45354;SDS011;31091;48.758;9.150;2022-12-29T10:32:11;4.32;;;1.67;;
45354;SDS011;31091;48.758;9.150;2022-12-29T10:35:00;3.70;;;1.58;;
45354;SDS011;31091;48.758;9.150;2022-12-29T10:40:40;2.45;;;1.40;;
45354;SDS011;31091;48.758;9.150;2022-12-29T10:43:28;1.90;;;1.40;;
45354;SDS011;31091;48.758;9.150;2022-12-29T10:46:15;5.15;;;1.60;;
45354;SDS011;31091;48.758;9.150;2022-12-29T10:49:02;4.43;;;1.92;;
45354;SDS011;31091;48.758;9.150;2022-12-29T10:51:48;2.22;;;1.60;;
45354;SDS011;31091;48.758;9.150;2022-12-29T10:54:44;2.72;;;1.42;;
45354;SDS011;31091;48.758;9.150;2022-12-29T10:57:35;3.75;;;1.58;;
45354;SDS011;31091;48.758;9.150;2022-12-29T11:00:21;3.35;;;1.50;;
45354;SDS011;31091;48.758;9.150;2022-12-29T11:06:04;1.73;;;1.13;;
45354;SDS011;31091;48.758;9.150;2022-12-29T11:08:56;4.57;;;1.30;;
45354;SDS011;31091;48.758;9.150;2022-12-29T11:11:42;2.80;;;1.50;;
45354;SDS011;31091;48.758;9.150;2022-12-29T11:14:28;6.10;;;2.05;;
45354;SDS011;31091;48.758;9.150;2022-12-29T11:17:15;3.08;;;1.70;;
45354;SDS011;31091;48.758;9.150;2022-12-29T11:20:18;3.40;;;1.42;;
45354;SDS011;31091;48.758;9.150;2022-12-29T11:26:12;1.90;;;1.45;;
45354;SDS011;31091;48.758;9.150;2022-12-29T11:31:53;4.57;;;1.70;;
45354;SDS011;31091;48.758;9.150;2022-12-29T11:34:40;2.13;;;1.23;;
45354;SDS011;31091;48.758;9.150;2022-12-29T11:37:29;4.55;;;1.50;;
45354;SDS011;31091;48.758;9.150;2022-12-29T11:40:16;2.95;;;1.50;;
45354;SDS011;31091;48.758;9.150;2022-12-29T11:43:02;3.30;;;1.73;;
45354;SDS011;31091;48.758;9.150;2022-12-29T11:45:47;3.33;;;2.20;;
45354;SDS011;31091;48.758;9.150;2022-12-29T11:48:33;2.25;;;1.27;;
45354;SDS011;31091;48.758;9.150;2022-12-29T11:51:23;3.05;;;1.58;;
45354;SDS011;31091;48.758;9.150;2022-12-29T11:54:11;3.60;;;1.42;;
45354;SDS011;31091;48.758;9.150;2022-12-29T11:57:14;3.50;;;1.58;;
45354;SDS011;31091;48.758;9.150;2022-12-29T12:00:01;3.78;;;1.58;;
45354;SDS011;31091;48.758;9.150;2022-12-29T12:02:48;5.03;;;2.83;;
45354;SDS011;31091;48.758;9.150;2022-12-29T12:05:37;3.03;;;1.30;;
45354;SDS011;31091;48.758;9.150;2022-12-29T12:08:38;3.45;;;2.25;;
45354;SDS011;31091;48.758;9.150;2022-12-29T12:11:32;4.88;;;2.33;;
45354;SDS011;31091;48.758;9.150;2022-12-29T12:17:27;3.92;;;1.48;;
45354;SDS011;31091;48.758;9.150;2022-12-29T12:20:31;3.10;;;1.17;;
45354;SDS011;31091;48.758;9.150;2022-12-29T12:26:19;4.90;;;1.50;;
45354;SDS011;31091;48.758;9.150;2022-12-29T12:29:10;1.42;;;1.27;;
45354;SDS011;31091;48.758;9.150;2022-12-29T12:31:57;3.10;;;1.08;;
45354;SDS011;31091;48.758;9.150;2022-12-29T12:34:45;4.60;;;1.30;;
45354;SDS011;31091;48.758;9.150;2022-12-29T12:37:46;3.35;;;1.42;;
45354;SDS011;31091;48.758;9.150;2022-12-29T12:41:21;1.65;;;1.45;;
45354;SDS011;31091;48.758;9.150;2022-12-29T12:43:43;7.57;;;1.45;;
45354;SDS011;31091;48.758;9.150;2022-12-29T12:55:29;4.43;;;1.73;;
45354;SDS011;31091;48.758;9.150;2022-12-29T13:01:34;2.35;;;1.73;;
45354;SDS011;31091;48.758;9.150;2022-12-29T13:04:32;8.85;;;2.80;;
45354;SDS011;31091;48.758;9.150;2022-12-29T13:07:31;2.75;;;1.60;;
45354;SDS011;31091;48.758;9.150;2022-12-29T13:21:30;2.80;;;1.90;;
45354;SDS011;31091;48.758;9.150;2022-12-29T13:27:31;3.70;;;1.85;;
45354;SDS011;31091;48.758;9.150;2022-12-29T13:30:18;2.50;;;1.30;;
45354;SDS011;31091;48.758;9.150;2022-12-29T13:41:57;3.72;;;1.60;;
45354;SDS011;31091;48.758;9.150;2022-12-29T13:44:48;2.65;;;1.83;;
45354;SDS011;31091;48.758;9.150;2022-12-29T13:47:36;2.22;;;1.33;;
45354;SDS011;31091;48.758;9.150;2022-12-29T13:50:25;6.18;;;1.83;;
45354;SDS011;31091;48.758;9.150;2022-12-29T13:53:17;4.20;;;1.27;;
45354;SDS011;31091;48.758;9.150;2022-12-29T13:56:07;2.85;;;1.30;;
45354;SDS011;31091;48.758;9.150;2022-12-29T14:04:32;2.45;;;1.52;;
45354;SDS011;31091;48.758;9.150;2022-12-29T14:07:19;6.35;;;1.88;;
45354;SDS011;31091;48.758;9.150;2022-12-29T14:10:05;2.83;;;1.80;;
45354;SDS011;31091;48.758;9.150;2022-12-29T14:12:50;3.28;;;1.90;;
45354;SDS011;31091;48.758;9.150;2022-12-29T14:15:37;2.95;;;1.70;;
45354;SDS011;31091;48.758;9.150;2022-12-29T14:18:26;2.72;;;1.45;;
45354;SDS011;31091;48.758;9.150;2022-12-29T14:29:53;5.47;;;1.65;;
45354;SDS011;31091;48.758;9.150;2022-12-29T14:32:38;8.75;;;1.50;;
45354;SDS011;31091;48.758;9.150;2022-12-29T14:35:40;4.28;;;2.00;;
45354;SDS011;31091;48.758;9.150;2022-12-29T14:38:26;2.22;;;1.30;;
45354;SDS011;31091;48.758;9.150;2022-12-29T14:41:15;2.58;;;1.48;;
45354;SDS011;31091;48.758;9.150;2022-12-29T14:49:42;3.13;;;2.00;;
45354;SDS011;31091;48.758;9.150;2022-12-29T14:52:29;5.00;;;2.85;;
45354;SDS011;31091;48.758;9.150;2022-12-29T14:58:01;4.63;;;1.70;;
45354;SDS011;31091;48.758;9.150;2022-12-29T15:00:47;2.97;;;1.85;;
45354;SDS011;31091;48.758;9.150;2022-12-29T15:03:34;2.88;;;1.80;;
45354;SDS011;31091;48.758;9.150;2022-12-29T15:06:21;4.85;;;1.52;;
45354;SDS011;31091;48.758;9.150;2022-12-29T15:14:51;2.38;;;1.70;;
45354;SDS011;31091;48.758;9.150;2022-12-29T15:17:37;3.25;;;1.65;;
45354;SDS011;31091;48.758;9.150;2022-12-29T15:20:25;3.92;;;1.58;;
45354;SDS011;31091;48.758;9.150;2022-12-29T15:23:11;4.13;;;2.15;;
45354;SDS011;31091;48.758;9.150;2022-12-29T15:26:06;2.70;;;1.50;;
45354;SDS011;31091;48.758;9.150;2022-12-29T15:28:52;8.20;;;2.58;;
45354;SDS011;31091;48.758;9.150;2022-12-29T15:31:45;4.90;;;2.13;;
45354;SDS011;31091;48.758;9.150;2022-12-29T15:34:32;3.25;;;1.85;;
45354;SDS011;31091;48.758;9.150;2022-12-29T15:37:18;7.45;;;2.17;;
45354;SDS011;31091;48.758;9.150;2022-12-29T15:40:04;2.63;;;1.70;;
45354;SDS011;31091;48.758;9.150;2022-12-29T15:42:55;3.90;;;1.98;;
45354;SDS011;31091;48.758;9.150;2022-12-29T15:45:43;4.22;;;2.22;;
45354;SDS011;31091;48.758;9.150;2022-12-29T15:48:29;5.63;;;2.40;;
45354;SDS011;31091;48.758;9.150;2022-12-29T15:51:19;6.03;;;2.67;;
45354;SDS011;31091;48.758;9.150;2022-12-29T15:56:50;4.45;;;2.30;;
45354;SDS011;31091;48.758;9.150;2022-12-29T15:59:35;4.20;;;2.00;;
45354;SDS011;31091;48.758;9.150;2022-12-29T16:02:23;3.83;;;2.20;;
45354;SDS011;31091;48.758;9.150;2022-12-29T16:05:09;3.00;;;1.60;;
45354;SDS011;31091;48.758;9.150;2022-12-29T16:07:59;3.05;;;1.55;;
45354;SDS011;31091;48.758;9.150;2022-12-29T16:10:45;5.38;;;1.90;;
45354;SDS011;31091;48.758;9.150;2022-12-29T16:13:31;2.13;;;1.30;;
45354;SDS011;31091;48.758;9.150;2022-12-29T16:16:28;2.00;;;1.23;;
45354;SDS011;31091;48.758;9.150;2022-12-29T16:19:19;2.30;;;1.30;;
45354;SDS011;31091;48.758;9.150;2022-12-29T16:22:15;2.50;;;1.33;;
45354;SDS011;31091;48.758;9.150;2022-12-29T16:25:24;2.33;;;0.98;;
45354;SDS011;31091;48.758;9.150;2022-12-29T16:28:16;2.22;;;1.20;;
45354;SDS011;31091;48.758;9.150;2022-12-29T16:31:02;3.17;;;0.77;;
45354;SDS011;31091;48.758;9.150;2022-12-29T16:33:49;2.10;;;1.25;;
45354;SDS011;31091;48.758;9.150;2022-12-29T16:36:39;0.98;;;0.63;;
45354;SDS011;31091;48.758;9.150;2022-12-29T16:39:26;1.92;;;1.17;;
45354;SDS011;31091;48.758;9.150;2022-12-29T16:50:49;2.15;;;1.50;;
45354;SDS011;31091;48.758;9.150;2022-12-29T16:53:38;2.40;;;1.10;;
45354;SDS011;31091;48.758;9.150;2022-12-29T16:56:25;1.80;;;1.00;;
45354;SDS011;31091;48.758;9.150;2022-12-29T16:59:19;4.00;;;1.10;;
45354;SDS011;31091;48.758;9.150;2022-12-29T17:02:15;2.10;;;1.08;;
45354;SDS011;31091;48.758;9.150;2022-12-29T17:05:01;4.30;;;1.63;;
45354;SDS011;31091;48.758;9.150;2022-12-29T17:07:46;3.17;;;1.52;;
45354;SDS011;31091;48.758;9.150;2022-12-29T17:10:33;2.78;;;1.38;;
45354;SDS011;31091;48.758;9.150;2022-12-29T17:13:36;6.75;;;1.60;;
45354;SDS011;31091;48.758;9.150;2022-12-29T17:16:22;4.78;;;1.17;;
45354;SDS011;31091;48.758;9.150;2022-12-29T17:19:08;3.03;;;1.85;;
45354;SDS011;31091;48.758;9.150;2022-12-29T17:21:55;2.50;;;1.20;;
45354;SDS011;31091;48.758;9.150;2022-12-29T17:24:40;1.50;;;1.08;;
45354;SDS011;31091;48.758;9.150;2022-12-29T17:27:30;2.35;;;1.13;;
45354;SDS011;31091;48.758;9.150;2022-12-29T17:30:17;8.68;;;1.15;;
45354;SDS011;31091;48.758;9.150;2022-12-29T17:33:09;4.20;;;1.10;;
45354;SDS011;31091;48.758;9.150;2022-12-29T17:35:57;6.00;;;1.65;;
45354;SDS011;31091;48.758;9.150;2022-12-29T17:38:42;3.10;;;1.50;;
45354;SDS011;31091;48.758;9.150;2022-12-29T17:41:27;3.67;;;1.85;;
45354;SDS011;31091;48.758;9.150;2022-12-29T17:44:17;3.90;;;1.40;;
45354;SDS011;31091;48.758;9.150;2022-12-29T17:47:03;1.92;;;0.93;;
45354;SDS011;31091;48.758;9.150;2022-12-29T17:49:48;2.63;;;1.10;;
45354;SDS011;31091;48.758;9.150;2022-12-29T17:52:33;3.25;;;1.10;;
45354;SDS011;31091;48.758;9.150;2022-12-29T17:55:19;5.30;;;1.30;;
45354;SDS011;31091;48.758;9.150;2022-12-29T17:58:24;2.15;;;1.00;;
45354;SDS011;31091;48.758;9.150;2022-12-29T18:01:09;4.75;;;1.70;;
45354;SDS011;31091;48.758;9.150;2022-12-29T18:03:55;7.20;;;2.38;;
45354;SDS011;31091;48.758;9.150;2022-12-29T18:06:41;6.60;;;3.15;;
45354;SDS011;31091;48.758;9.150;2022-12-29T18:09:26;7.10;;;2.42;;
45354;SDS011;31091;48.758;9.150;2022-12-29T18:12:28;5.75;;;1.98;;
45354;SDS011;31091;48.758;9.150;2022-12-29T18:15:21;6.57;;;2.47;;
45354;SDS011;31091;48.758;9.150;2022-12-29T18:18:10;4.10;;;1.48;;
45354;SDS011;31091;48.758;9.150;2022-12-29T18:20:58;9.82;;;1.77;;
45354;SDS011;31091;48.758;9.150;2022-12-29T18:23:43;4.68;;;1.40;;
45354;SDS011;31091;48.758;9.150;2022-12-29T18:26:30;7.50;;;2.20;;
45354;SDS011;31091;48.758;9.150;2022-12-29T18:29:19;8.68;;;2.85;;
45354;SDS011;31091;48.758;9.150;2022-12-29T18:32:05;10.77;;;4.80;;
45354;SDS011;31091;48.758;9.150;2022-12-29T18:34:52;8.05;;;4.50;;
45354;SDS011;31091;48.758;9.150;2022-12-29T18:37:37;6.18;;;2.90;;
45354;SDS011;31091;48.758;9.150;2022-12-29T18:40:22;6.22;;;2.83;;
45354;SDS011;31091;48.758;9.150;2022-12-29T18:43:14;8.50;;;1.70;;
45354;SDS011;31091;48.758;9.150;2022-12-29T18:46:00;6.15;;;1.95;;
45354;SDS011;31091;48.758;9.150;2022-12-29T18:48:45;2.95;;;1.65;;
45354;SDS011;31091;48.758;9.150;2022-12-29T18:51:30;5.55;;;1.95;;
45354;SDS011;31091;48.758;9.150;2022-12-29T18:54:29;3.22;;;0.93;;
45354;SDS011;31091;48.758;9.150;2022-12-29T18:57:14;1.33;;;1.00;;
45354;SDS011;31091;48.758;9.150;2022-12-29T18:59:59;2.90;;;1.15;;
45354;SDS011;31091;48.758;9.150;2022-12-29T19:02:45;2.45;;;0.93;;
45354;SDS011;31091;48.758;9.150;2022-12-29T19:05:34;2.55;;;0.88;;
45354;SDS011;31091;48.758;9.150;2022-12-29T19:08:19;1.65;;;0.80;;
45354;SDS011;31091;48.758;9.150;2022-12-29T19:11:05;1.90;;;1.10;;
45354;SDS011;31091;48.758;9.150;2022-12-29T19:13:50;3.35;;;1.30;;
45354;SDS011;31091;48.758;9.150;2022-12-29T19:16:35;2.72;;;1.70;;
45354;SDS011;31091;48.758;9.150;2022-12-29T19:19:20;2.63;;;1.25;;
45354;SDS011;31091;48.758;9.150;2022-12-29T19:22:06;7.88;;;1.30;;